Time;durP1;ratioP1;P1;durP2;ratioP2;P2;SDS_P1;SDS_P2;PMS_P1;PMS_P2;Temp;Humidity;BMP_temperature;BMP_pressure;BME280_temperature;BME280_humidity;BME280_pressure;Samples;Min_cycle;Max_cycle;Signal;HPM_P1;HPM_P2
2021/12/11 00:01:06;;;;;;;13.57;11.98;;;4.30;94.80;;;;;;5074303;28;20703;-70
2021/12/11 00:03:39;;;;;;;16.33;13.80;;;4.30;94.60;;;;;;5075228;28;20185;-70
2021/12/11 00:06:28;;;;;;;20.85;12.57;;;4.20;94.80;;;;;;5062525;28;20201;-70
2021/12/11 00:08:59;;;;;;;18.40;13.73;;;4.20;95.00;;;;;;5074017;28;20219;-70
2021/12/11 00:11:31;;;;;;;16.50;12.70;;;4.20;95.10;;;;;;5073857;28;20563;-70
2021/12/11 00:13:59;;;;;;;15.77;13.27;;;4.30;95.20;;;;;;5074016;28;20212;-70
2021/12/11 00:16:28;;;;;;;17.00;13.48;;;4.30;95.00;;;;;;5059668;28;20218;-70
2021/12/11 00:19:00;;;;;;;17.88;13.65;;;4.30;95.20;;;;;;5053715;28;20177;-70
2021/12/11 00:21:26;;;;;;;18.90;15.63;;;4.20;95.00;;;;;;5054817;28;20163;-70
2021/12/11 00:24:16;;;;;;;17.60;14.23;;;4.20;95.10;;;;;;5053937;28;20181;-70
2021/12/11 00:26:53;;;;;;;15.50;13.10;;;4.30;95.30;;;;;;5053739;28;20395;-74
2021/12/11 00:29:24;;;;;;;14.82;13.35;;;3.90;95.20;;;;;;5053090;28;20535;-70
2021/12/11 00:31:53;;;;;;;17.05;13.25;;;4.00;95.20;;;;;;5053837;28;20613;-70
2021/12/11 00:34:22;;;;;;;13.90;11.88;;;4.30;95.30;;;;;;5054149;28;20174;-70
2021/12/11 00:36:59;;;;;;;14.60;12.00;;;3.80;95.40;;;;;;5052425;28;20177;-70
2021/12/11 00:39:26;;;;;;;13.43;11.77;;;4.30;95.70;;;;;;5055187;28;20170;-70
2021/12/11 00:41:55;;;;;;;13.35;12.00;;;4.30;95.50;;;;;;5053298;28;20637;-70
2021/12/11 00:44:44;;;;;;;15.00;12.13;;;4.30;95.10;;;;;;5053901;28;20343;-70
2021/12/11 00:47:22;;;;;;;15.02;12.23;;;4.20;94.90;;;;;;5053992;28;20645;-70
2021/12/11 00:50:03;;;;;;;18.98;13.50;;;4.20;95.10;;;;;;5053652;28;20181;-70
2021/12/11 00:52:36;;;;;;;16.98;12.70;;;4.20;95.20;;;;;;5053019;28;20591;-70
2021/12/11 00:55:09;;;;;;;14.45;12.68;;;4.20;95.30;;;;;;5052042;28;20220;-70
2021/12/11 00:57:34;;;;;;;15.32;12.68;;;4.10;95.40;;;;;;5053255;28;20181;-70
2021/12/11 01:00:11;;;;;;;15.07;12.30;;;3.80;95.30;;;;;;5061451;28;20174;-70
2021/12/11 01:02:38;;;;;;;15.77;12.98;;;4.20;95.40;;;;;;5073839;28;20440;-70
2021/12/11 01:05:06;;;;;;;18.17;13.30;;;4.20;95.50;;;;;;5072985;28;20845;-70
2021/12/11 01:07:33;;;;;;;13.73;12.30;;;4.20;95.60;;;;;;5061162;28;20185;-70
2021/12/11 01:10:17;;;;;;;15.35;13.70;;;4.00;95.40;;;;;;5035011;28;20205;-70
2021/12/11 01:12:51;;;;;;;16.08;12.57;;;4.20;95.60;;;;;;5053470;28;20625;-74
2021/12/11 01:15:24;;;;;;;15.48;12.57;;;4.20;95.40;;;;;;5053354;28;20563;-70
2021/12/11 01:18:10;;;;;;;15.18;12.60;;;4.10;95.10;;;;;;5066945;28;20645;-70
2021/12/11 01:24:09;;;;;;;17.80;12.63;;;4.10;94.90;;;;;;5073300;28;20165;-70
2021/12/11 01:26:20;;;;;;;16.50;12.40;;;4.10;95.00;;;;;;5066738;28;20250;-70
2021/12/11 01:28:47;;;;;;;14.13;11.88;;;4.00;95.00;;;;;;5052450;28;20614;-72
2021/12/11 01:31:15;;;;;;;15.00;12.73;;;3.70;94.90;;;;;;5053567;28;20231;-70
2021/12/11 01:33:42;;;;;;;14.82;12.73;;;3.80;95.00;;;;;;5057011;28;20169;-70
2021/12/11 01:36:08;;;;;;;17.13;12.23;;;4.00;95.10;;;;;;5071333;28;20262;-70
2021/12/11 01:38:35;;;;;;;14.80;12.90;;;4.00;95.10;;;;;;5071719;28;20169;-70
2021/12/11 01:41:07;;;;;;;16.15;12.77;;;4.00;95.40;;;;;;5072353;28;20169;-70
2021/12/11 01:43:35;;;;;;;14.25;10.93;;;4.00;95.50;;;;;;5068596;28;20189;-70
2021/12/11 01:46:03;;;;;;;15.88;11.70;;;4.00;95.50;;;;;;5052314;28;20259;-70
2021/12/11 01:48:38;;;;;;;14.75;12.68;;;4.00;95.30;;;;;;5051563;28;20185;-70
2021/12/11 01:51:22;;;;;;;16.50;12.35;;;4.00;95.30;;;;;;5052130;28;20427;-70
2021/12/11 01:53:59;;;;;;;13.65;11.65;;;4.00;95.30;;;;;;5055956;28;20227;-72
2021/12/11 01:56:28;;;;;;;14.63;11.68;;;3.90;95.40;;;;;;5072995;28;20169;-70
2021/12/11 01:59:04;;;;;;;17.55;13.00;;;4.00;95.30;;;;;;5072020;28;20170;-70
2021/12/11 02:01:32;;;;;;;18.00;13.60;;;4.10;95.30;;;;;;5062979;28;20174;-70
2021/12/11 02:04:01;;;;;;;18.85;14.68;;;3.60;95.00;;;;;;5051877;28;20174;-70
2021/12/11 02:06:29;;;;;;;18.05;12.57;;;3.80;95.10;;;;;;5052485;28;20201;-70
2021/12/11 02:08:55;;;;;;;14.68;12.05;;;3.50;94.90;;;;;;5051992;28;20174;-70
2021/12/11 02:11:26;;;;;;;18.38;13.95;;;3.90;95.00;;;;;;5060009;28;20166;-70
2021/12/11 02:13:59;;;;;;;18.65;13.13;;;3.80;94.80;;;;;;5071682;28;20173;-70
2021/12/11 02:16:27;;;;;;;14.02;12.00;;;3.90;95.30;;;;;;5072294;28;20183;-70
2021/12/11 02:19:02;;;;;;;15.77;12.75;;;3.90;95.60;;;;;;5071669;28;20246;-70
2021/12/11 02:21:30;;;;;;;14.90;12.23;;;3.60;95.60;;;;;;5063727;28;20219;-70
2021/12/11 02:24:09;;;;;;;17.98;12.95;;;4.00;96.10;;;;;;5051541;28;20178;-70
2021/12/11 02:26:38;;;;;;;14.48;12.57;;;3.90;95.40;;;;;;5052575;28;20170;-70
2021/12/11 02:29:12;;;;;;;17.88;13.00;;;3.90;95.20;;;;;;5052058;28;20648;-70
2021/12/11 02:32:05;;;;;;;14.60;13.05;;;3.80;95.00;;;;;;5051809;28;20177;-70
2021/12/11 02:34:37;;;;;;;16.88;13.15;;;3.80;95.10;;;;;;5051282;28;20253;-70
2021/12/11 02:37:33;;;;;;;18.20;14.20;;;3.80;95.00;;;;;;5051492;28;20174;-70
2021/12/11 02:40:23;;;;;;;19.27;13.95;;;3.80;95.10;;;;;;5046044;28;20194;-70
2021/12/11 02:43:00;;;;;;;16.50;14.80;;;3.80;95.10;;;;;;5049634;28;20251;-73
2021/12/11 02:45:34;;;;;;;17.85;13.50;;;3.70;94.90;;;;;;5052098;28;20590;-70
2021/12/11 02:48:25;;;;;;;14.23;12.70;;;3.70;94.70;;;;;;5051305;28;20205;-70
2021/12/11 02:51:16;;;;;;;18.98;14.35;;;3.50;95.10;;;;;;5050299;28;20219;-73
2021/12/11 02:53:46;;;;;;;15.30;13.32;;;3.70;95.50;;;;;;5050791;28;20173;-70
2021/12/11 02:56:18;;;;;;;17.52;14.02;;;3.70;95.50;;;;;;5050367;28;20258;-70
2021/12/11 02:58:52;;;;;;;18.15;13.77;;;3.70;95.50;;;;;;5061181;28;20598;-70
2021/12/11 03:01:29;;;;;;;19.63;13.52;;;3.70;95.70;;;;;;5073068;28;20227;-70
2021/12/11 03:04:14;;;;;;;15.43;13.23;;;3.40;95.30;;;;;;5075626;28;20172;-70
2021/12/11 03:06:44;;;;;;;18.98;13.63;;;3.30;95.10;;;;;;5076174;28;20157;-70
2021/12/11 03:09:13;;;;;;;14.75;12.60;;;3.70;95.50;;;;;;5061174;28;20181;-70
2021/12/11 03:11:39;;;;;;;17.95;13.35;;;3.30;95.20;;;;;;5056316;28;20182;-70
2021/12/11 03:14:12;;;;;;;18.38;14.35;;;3.70;95.40;;;;;;5055127;28;20598;-70
2021/12/11 03:16:38;;;;;;;18.20;14.10;;;3.70;95.30;;;;;;5056024;28;20236;-70
2021/12/11 03:19:07;;;;;;;15.95;13.75;;;3.70;95.00;;;;;;5066422;28;20177;-70
2021/12/11 03:21:33;;;;;;;19.85;13.20;;;3.80;95.20;;;;;;5057577;28;20209;-70
2021/12/11 03:23:59;;;;;;;24.33;15.83;;;3.70;95.30;;;;;;5074928;28;20215;-70
2021/12/11 03:26:25;;;;;;;18.57;14.07;;;3.70;95.40;;;;;;5075978;28;20385;-70
2021/12/11 03:28:52;;;;;;;21.83;14.43;;;3.70;95.60;;;;;;5063963;28;20420;-74
2021/12/11 03:31:18;;;;;;;21.73;14.80;;;3.70;95.70;;;;;;5055819;28;20177;-70
2021/12/11 03:33:48;;;;;;;23.30;15.87;;;3.60;95.50;;;;;;5055862;28;20185;-70
2021/12/11 03:36:16;;;;;;;19.00;14.57;;;3.40;95.40;;;;;;5053513;28;20849;-70
2021/12/11 03:38:46;;;;;;;20.20;13.60;;;3.70;95.70;;;;;;5062528;28;20238;-70
2021/12/11 03:41:12;;;;;;;20.35;13.00;;;3.60;95.40;;;;;;5074748;28;20639;-70
2021/12/11 03:43:38;;;;;;;21.60;15.73;;;3.70;95.50;;;;;;5074993;28;20169;-71
2021/12/11 03:46:07;;;;;;;17.83;14.00;;;3.60;95.30;;;;;;5074389;28;20209;-70
2021/12/11 03:48:54;;;;;;;17.67;13.35;;;3.70;95.50;;;;;;5075579;28;20181;-70
2021/12/11 03:51:24;;;;;;;23.67;14.63;;;3.70;95.60;;;;;;5074622;28;20201;-70
2021/12/11 03:53:51;;;;;;;19.60;13.30;;;3.70;95.40;;;;;;5075326;28;20162;-73
2021/12/11 03:56:18;;;;;;;17.83;14.20;;;3.60;95.30;;;;;;5073395;28;20640;-70
2021/12/11 03:58:49;;;;;;;22.52;15.30;;;3.70;95.60;;;;;;5057241;28;20589;-70
2021/12/11 04:01:26;;;;;;;24.25;15.75;;;3.60;95.80;;;;;;5074633;28;20168;-70
2021/12/11 04:03:55;;;;;;;22.42;13.63;;;3.60;96.10;;;;;;5074286;28;20161;-74
2021/12/11 04:06:22;;;;;;;25.80;15.57;;;3.70;96.00;;;;;;5075014;28;20195;-70
2021/12/11 04:08:49;;;;;;;24.17;15.55;;;3.70;96.60;;;;;;5075333;28;20181;-70
2021/12/11 04:11:22;;;;;;;24.05;15.40;;;3.60;96.20;;;;;;5072892;28;20173;-70
2021/12/11 04:13:51;;;;;;;24.02;15.10;;;3.70;96.30;;;;;;5070724;28;20173;-70
2021/12/11 04:16:18;;;;;;;25.77;16.77;;;3.70;96.60;;;;;;5054410;28;20186;-70
2021/12/11 04:18:45;;;;;;;24.02;15.85;;;3.30;96.80;;;;;;5054762;28;20170;-70
2021/12/11 04:21:12;;;;;;;26.38;17.45;;;3.80;97.40;;;;;;5053724;28;20174;-70
2021/12/11 04:23:39;;;;;;;24.67;15.80;;;3.80;97.70;;;;;;5053795;28;20257;-70
2021/12/11 04:26:05;;;;;;;24.88;15.93;;;3.80;97.40;;;;;;5056934;28;20239;-70
2021/12/11 04:28:35;;;;;;;25.52;16.60;;;3.70;96.80;;;;;;5074414;28;20201;-70
2021/12/11 04:31:08;;;;;;;25.48;16.15;;;3.70;96.50;;;;;;5073723;28;20165;-70
2021/12/11 04:33:38;;;;;;;24.90;14.82;;;3.40;96.30;;;;;;5073318;28;20165;-70
2021/12/11 04:36:11;;;;;;;26.48;15.35;;;3.80;96.40;;;;;;5073628;28;20190;-70
2021/12/11 04:38:39;;;;;;;23.63;14.48;;;3.80;96.00;;;;;;5066998;28;20220;-70
2021/12/11 04:41:08;;;;;;;23.08;15.20;;;3.70;95.60;;;;;;5053554;28;20519;-70
2021/12/11 04:43:35;;;;;;;25.00;16.00;;;3.70;95.50;;;;;;5052598;28;20676;-70
2021/12/11 04:46:07;;;;;;;24.20;18.13;;;3.70;95.40;;;;;;5053503;28;20228;-70
2021/12/11 04:48:47;;;;;;;27.17;18.33;;;3.70;95.60;;;;;;5054040;28;20247;-70
2021/12/11 04:56:58;;;;;;;21.80;15.50;;;3.40;95.70;;;;;;5073833;28;20626;-70
2021/12/11 05:00:08;;;;;;;27.55;16.05;;;3.70;95.80;;;;;;5064528;28;20216;-70
2021/12/11 05:02:48;;;;;;;21.90;16.27;;;3.70;95.70;;;;;;5051946;28;20216;-69
2021/12/11 05:08:15;;;;;;;18.98;14.38;;;3.60;95.40;;;;;;5054234;28;20184;-70
2021/12/11 05:10:53;;;;;;;24.30;15.93;;;3.60;95.50;;;;;;5053665;28;20177;-69
2021/12/11 05:13:20;;;;;;;24.50;14.65;;;3.30;95.50;;;;;;5064014;28;20425;-69
2021/12/11 05:15:49;;;;;;;24.42;14.68;;;3.60;96.00;;;;;;5072617;28;20195;-69
2021/12/11 05:18:17;;;;;;;26.48;16.10;;;3.70;96.00;;;;;;5072208;28;20553;-69
2021/12/11 05:20:46;;;;;;;25.65;14.40;;;3.60;96.00;;;;;;5052500;28;20539;-69
2021/12/11 05:23:12;;;;;;;27.02;16.98;;;3.60;96.10;;;;;;5072222;28;20259;-69
2021/12/11 05:25:38;;;;;;;24.85;15.63;;;3.50;95.90;;;;;;5072477;28;20540;-69
2021/12/11 05:28:05;;;;;;;26.03;15.87;;;3.50;95.60;;;;;;5071414;28;20188;-69
2021/12/11 05:30:37;;;;;;;26.38;16.65;;;3.50;95.70;;;;;;5073116;28;20419;-69
2021/12/11 05:33:03;;;;;;;30.38;15.20;;;3.60;95.70;;;;;;5070538;28;20169;-70
2021/12/11 05:35:31;;;;;;;28.43;15.73;;;3.50;96.30;;;;;;5062213;28;20178;-69
2021/12/11 05:37:58;;;;;;;24.38;15.50;;;3.20;95.80;;;;;;5073054;28;20513;-76
2021/12/11 05:40:26;;;;;;;27.05;15.73;;;3.50;95.70;;;;;;5072705;28;20183;-69
2021/12/11 05:42:52;;;;;;;28.17;16.55;;;3.50;95.90;;;;;;5073494;28;20184;-69
2021/12/11 05:45:18;;;;;;;28.88;17.48;;;3.50;96.20;;;;;;5072375;28;20225;-69
2021/12/11 05:47:44;;;;;;;27.90;16.90;;;3.50;96.40;;;;;;5072209;28;20191;-69
2021/12/11 05:50:17;;;;;;;27.27;16.43;;;3.60;96.60;;;;;;5078334;28;20407;-69
2021/12/11 05:52:44;;;;;;;33.20;20.58;;;3.60;96.60;;;;;;5053381;28;20420;-69
2021/12/11 05:55:15;;;;;;;29.40;16.27;;;3.60;96.30;;;;;;5051908;28;20236;-69
2021/12/11 05:57:49;;;;;;;31.77;18.02;;;3.20;95.30;;;;;;5052947;28;20161;-69
2021/12/11 06:00:15;;;;;;;28.58;18.35;;;3.10;95.40;;;;;;5052118;28;20164;-69
2021/12/11 06:02:41;;;;;;;29.98;17.10;;;3.50;95.80;;;;;;5052795;28;20261;-69
2021/12/11 06:05:07;;;;;;;29.07;17.40;;;3.50;95.80;;;;;;5052079;28;20300;-69
2021/12/11 06:07:33;;;;;;;33.40;20.05;;;3.50;95.90;;;;;;5052725;28;20212;-69
2021/12/11 06:10:07;;;;;;;30.90;16.57;;;3.50;95.70;;;;;;5052350;28;20577;-76
2021/12/11 06:12:33;;;;;;;30.02;17.17;;;3.50;96.30;;;;;;5071514;28;20214;-69
2021/12/11 06:14:59;;;;;;;27.73;15.80;;;3.60;96.20;;;;;;5072135;28;20184;-77
2021/12/11 06:17:28;;;;;;;25.60;15.83;;;3.50;96.00;;;;;;5070701;28;20636;-69
2021/12/11 06:19:56;;;;;;;29.13;17.05;;;3.30;96.20;;;;;;5066282;28;20516;-69
2021/12/11 06:22:33;;;;;;;31.25;16.02;;;3.50;96.50;;;;;;5070396;28;20181;-69
2021/12/11 06:25:02;;;;;;;36.17;20.02;;;3.10;96.40;;;;;;5072325;28;20660;-69
2021/12/11 06:27:28;;;;;;;30.88;17.73;;;3.60;96.90;;;;;;5072040;28;20256;-69
2021/12/11 06:29:54;;;;;;;30.92;18.13;;;3.50;97.20;;;;;;5071866;28;20184;-69
2021/12/11 06:32:22;;;;;;;30.57;19.43;;;3.60;97.90;;;;;;5071293;28;20300;-69
2021/12/11 06:34:48;;;;;;;33.90;18.50;;;3.60;97.80;;;;;;5072286;28;20449;-69
2021/12/11 06:37:15;;;;;;;29.70;17.70;;;3.50;97.70;;;;;;5071324;28;20227;-69
2021/12/11 06:39:41;;;;;;;35.05;17.38;;;3.70;97.60;;;;;;5071117;28;20712;-69
2021/12/11 06:42:09;;;;;;;33.20;18.02;;;3.70;97.60;;;;;;5071701;28;20208;-70
2021/12/11 06:44:36;;;;;;;28.27;16.73;;;3.80;97.30;;;;;;5071970;28;20225;-69
2021/12/11 06:47:06;;;;;;;33.08;19.98;;;3.70;96.90;;;;;;5070327;28;20694;-75
2021/12/11 06:49:34;;;;;;;35.08;18.67;;;3.70;97.00;;;;;;5072118;28;20189;-69
2021/12/11 06:52:01;;;;;;;28.85;18.63;;;3.70;97.00;;;;;;5072220;28;20181;-69
2021/12/11 06:54:27;;;;;;;31.48;18.20;;;3.70;97.20;;;;;;5071556;28;20212;-69
2021/12/11 06:56:53;;;;;;;35.63;18.50;;;3.60;97.10;;;;;;5071900;28;20205;-69
2021/12/11 06:59:20;;;;;;;27.65;18.23;;;3.60;97.50;;;;;;5071111;28;20188;-69
2021/12/11 07:01:46;;;;;;;37.05;18.98;;;3.70;97.60;;;;;;5070209;28;20267;-69
2021/12/11 07:04:13;;;;;;;34.07;19.77;;;3.60;97.60;;;;;;5054598;28;20694;-69
2021/12/11 07:06:43;;;;;;;33.33;19.42;;;3.20;97.60;;;;;;5051725;28;20888;-69
2021/12/11 07:09:10;;;;;;;34.58;22.52;;;3.50;97.80;;;;;;5051609;28;20184;-70
2021/12/11 07:11:42;;;;;;;32.00;18.95;;;3.40;97.80;;;;;;5068355;28;20181;-69
2021/12/11 07:14:09;;;;;;;34.88;18.52;;;3.60;98.00;;;;;;5069168;28;20177;-70
2021/12/11 07:16:36;;;;;;;33.47;19.45;;;3.80;98.10;;;;;;5069402;28;20177;-69
2021/12/11 07:19:05;;;;;;;34.95;18.95;;;3.60;98.20;;;;;;5057929;28;20224;-70
2021/12/11 07:21:32;;;;;;;38.28;21.08;;;3.90;98.60;;;;;;5055471;28;20337;-70
2021/12/11 07:23:58;;;;;;;33.10;19.00;;;3.60;98.50;;;;;;5062223;28;20173;-70
2021/12/11 07:26:31;;;;;;;36.22;18.38;;;4.00;98.70;;;;;;5064546;28;20208;-70
2021/12/11 07:29:13;;;;;;;40.90;20.48;;;4.10;98.50;;;;;;5061759;28;20174;-70
2021/12/11 07:31:41;;;;;;;31.75;19.17;;;4.10;98.50;;;;;;5071748;28;20169;-70
2021/12/11 07:34:08;;;;;;;29.88;18.83;;;3.90;98.60;;;;;;5068735;28;20649;-70
2021/12/11 07:36:34;;;;;;;31.30;19.10;;;3.70;98.60;;;;;;5055460;28;20312;-70
2021/12/11 07:39:05;;;;;;;37.67;20.13;;;3.80;98.80;;;;;;5051653;28;20174;-70
2021/12/11 07:41:31;;;;;;;33.25;18.13;;;4.10;99.00;;;;;;5051551;28;20167;-70
2021/12/11 07:43:57;;;;;;;34.83;19.10;;;3.90;99.00;;;;;;5067380;28;20262;-70
2021/12/11 07:46:25;;;;;;;29.90;18.73;;;4.20;99.10;;;;;;5063591;28;20969;-70
2021/12/11 07:48:51;;;;;;;38.50;21.15;;;3.80;98.70;;;;;;5062811;28;20539;-70
2021/12/11 07:51:19;;;;;;;38.60;19.33;;;3.90;98.90;;;;;;5074084;28;20184;-70
2021/12/11 07:53:45;;;;;;;34.25;20.00;;;4.20;99.50;;;;;;5074881;28;20532;-70
2021/12/11 07:56:11;;;;;;;34.50;19.02;;;3.90;99.60;;;;;;5074676;28;20677;-70
2021/12/11 07:58:37;;;;;;;35.27;20.20;;;4.30;99.80;;;;;;5068723;28;20272;-70
2021/12/11 08:01:06;;;;;;;34.05;18.88;;;4.30;99.70;;;;;;5072790;28;20425;-68
2021/12/11 08:03:33;;;;;;;30.15;18.52;;;4.40;99.70;;;;;;5076148;28;20259;-68
2021/12/11 08:05:59;;;;;;;34.40;17.85;;;4.40;99.70;;;;;;5067562;28;20209;-70
2021/12/11 08:08:26;;;;;;;32.55;20.92;;;4.50;99.90;;;;;;5073814;28;20364;-74
2021/12/11 08:10:56;;;;;;;38.65;21.67;;;4.70;99.90;;;;;;5073272;28;20190;-72
2021/12/11 08:13:22;;;;;;;35.95;20.80;;;5.20;99.90;;;;;;5072663;28;20589;-72
2021/12/11 08:15:49;;;;;;;31.30;18.17;;;6.00;99.90;;;;;;5069981;28;20212;-73
2021/12/11 08:18:17;;;;;;;29.87;18.77;;;6.80;99.90;;;;;;5074003;28;20761;-72
2021/12/11 08:20:45;;;;;;;28.23;17.50;;;7.20;97.10;;;;;;5067701;28;20418;-73
2021/12/11 08:23:14;;;;;;;28.93;17.77;;;7.70;96.30;;;;;;5073392;28;20462;-74
2021/12/11 08:25:43;;;;;;;30.20;17.80;;;8.30;96.10;;;;;;5076313;28;20880;-72
2021/12/11 08:28:12;;;;;;;33.73;19.00;;;8.90;95.10;;;;;;5072725;28;20513;-80
2021/12/11 08:30:41;;;;;;;35.03;20.97;;;9.50;94.10;;;;;;5067011;28;20469;-72
2021/12/11 08:33:08;;;;;;;30.40;19.93;;;10.00;92.90;;;;;;5056720;28;20430;-80
2021/12/11 08:35:34;;;;;;;37.30;20.33;;;10.50;92.10;;;;;;5079419;28;20436;-73
2021/12/11 08:38:00;;;;;;;30.30;18.43;;;10.80;91.30;;;;;;5054357;28;20410;-72
2021/12/11 08:40:30;;;;;;;30.97;20.43;;;11.20;90.10;;;;;;5053572;28;20436;-72
2021/12/11 08:42:56;;;;;;;31.03;19.13;;;11.40;87.80;;;;;;5059345;28;20425;-72
2021/12/11 08:45:33;;;;;;;47.70;21.10;;;11.60;86.10;;;;;;5073442;28;20632;-72
2021/12/11 08:48:00;;;;;;;29.53;20.20;;;11.90;85.10;;;;;;5074247;28;20410;-72
2021/12/11 08:50:30;;;;;;;32.03;22.03;;;12.10;85.00;;;;;;5069144;28;20432;-72
2021/12/11 08:52:57;;;;;;;32.30;20.50;;;12.30;83.40;;;;;;5069553;28;20406;-73
2021/12/11 08:55:31;;;;;;;27.00;18.80;;;12.50;82.50;;;;;;5063043;28;20437;-69
2021/12/11 08:57:57;;;;;;;34.57;21.00;;;12.40;79.30;;;;;;5063567;28;20527;-70
2021/12/11 09:00:26;;;;;;;34.33;20.60;;;12.00;76.30;;;;;;5062439;28;20485;-70
2021/12/11 09:03:00;;;;;;;32.10;19.40;;;11.40;76.00;;;;;;5064081;28;20430;-70
2021/12/11 09:05:34;;;;;;;31.20;19.90;;;10.80;77.00;;;;;;5052834;28;20464;-70
2021/12/11 09:08:12;;;;;;;35.10;20.03;;;10.30;78.60;;;;;;5060115;28;20424;-70
2021/12/11 09:11:07;;;;;;;32.30;20.73;;;9.80;82.30;;;;;;5057731;28;20410;-70
2021/12/11 09:13:36;;;;;;;29.23;18.93;;;9.20;85.30;;;;;;5056687;28;20569;-70
2021/12/11 09:16:15;;;;;;;35.40;18.73;;;8.80;88.00;;;;;;5057375;28;20988;-70
2021/12/11 09:18:54;;;;;;;32.63;17.17;;;8.50;90.10;;;;;;5052770;28;20470;-72
2021/12/11 09:21:31;;;;;;;34.17;18.97;;;8.20;91.40;;;;;;5061665;28;20443;-70
2021/12/11 09:24:20;;;;;;;34.37;19.10;;;8.00;92.00;;;;;;5073303;28;20497;-70
2021/12/11 09:26:51;;;;;;;31.10;18.17;;;7.80;92.70;;;;;;5065138;28;20420;-73
2021/12/11 09:29:23;;;;;;;34.47;19.60;;;7.60;93.40;;;;;;5035499;28;20776;-70
2021/12/11 09:31:59;;;;;;;39.13;19.80;;;7.40;94.00;;;;;;5053314;28;20402;-70
2021/12/11 09:34:34;;;;;;;35.27;18.03;;;7.30;94.70;;;;;;5065135;28;20553;-70
2021/12/11 09:37:02;;;;;;;30.77;16.77;;;7.20;95.20;;;;;;5073302;28;20410;-70
2021/12/11 09:39:40;;;;;;;34.83;19.00;;;7.10;95.20;;;;;;5065087;28;20534;-70
2021/12/11 09:42:07;;;;;;;34.43;18.83;;;7.10;95.80;;;;;;5057206;28;20424;-70
2021/12/11 09:44:43;;;;;;;35.37;17.83;;;7.00;96.00;;;;;;5072116;28;20552;-70
2021/12/11 09:47:40;;;;;;;33.60;20.37;;;7.00;96.40;;;;;;5071814;28;20950;-70
2021/12/11 09:50:11;;;;;;;33.27;19.00;;;7.00;96.90;;;;;;5053529;28;20434;-69
2021/12/11 09:52:39;;;;;;;39.80;19.87;;;6.90;97.10;;;;;;5060577;28;20471;-70
2021/12/11 09:55:13;;;;;;;32.67;19.30;;;6.90;97.60;;;;;;5069855;28;20420;-70
2021/12/11 09:57:42;;;;;;;36.07;19.20;;;6.90;97.90;;;;;;5067875;28;20437;-70
2021/12/11 10:00:31;;;;;;;35.47;18.97;;;6.80;97.70;;;;;;5074172;28;20472;-72
2021/12/11 10:02:57;;;;;;;254.17;136.70;;;6.90;98.00;;;;;;5071194;28;20434;-72
2021/12/11 10:05:36;;;;;;;242.93;129.77;;;6.80;98.30;;;;;;5066763;28;20462;-70
2021/12/11 10:11:15;;;;;;;38.60;20.40;;;6.90;98.60;;;;;;5053227;28;20512;-70
2021/12/11 10:13:46;;;;;;;38.10;20.07;;;7.00;98.60;;;;;;5052198;28;20890;-70
2021/12/11 10:16:14;;;;;;;36.23;19.63;;;7.00;98.50;;;;;;5053506;28;20456;-70
2021/12/11 10:18:40;;;;;;;30.13;19.47;;;7.00;98.70;;;;;;5052211;28;20894;-69
2021/12/11 10:21:17;;;;;;;35.90;19.63;;;7.00;98.90;;;;;;5052492;28;20496;-70
2021/12/11 10:23:48;;;;;;;36.53;20.23;;;7.10;99.00;;;;;;5056474;28;20425;-70
2021/12/11 10:26:16;;;;;;;36.10;19.87;;;7.00;98.80;;;;;;5070357;28;20456;-77
2021/12/11 10:28:46;;;;;;;36.63;20.30;;;7.10;98.70;;;;;;5071864;28;20413;-70
2021/12/11 10:31:35;;;;;;;36.83;18.27;;;7.00;98.80;;;;;;5071077;28;20429;-70
2021/12/11 10:34:04;;;;;;;38.77;19.70;;;7.00;98.90;;;;;;5072396;28;20455;-70
2021/12/11 10:36:34;;;;;;;35.67;19.40;;;7.00;99.10;;;;;;5071244;28;20776;-70
2021/12/11 10:39:02;;;;;;;33.10;19.00;;;7.00;99.40;;;;;;5070208;28;20848;-70
2021/12/11 10:41:29;;;;;;;38.20;20.93;;;7.00;99.50;;;;;;5074918;28;20432;-70
2021/12/11 10:44:02;;;;;;;37.40;20.37;;;7.00;99.40;;;;;;5092172;28;20474;-70
2021/12/11 10:46:32;;;;;;;39.73;20.77;;;7.00;99.60;;;;;;5074945;28;20464;-70
2021/12/11 10:49:00;;;;;;;37.77;19.80;;;7.10;99.40;;;;;;5057324;28;20411;-70
2021/12/11 10:51:33;;;;;;;34.50;18.47;;;7.10;99.10;;;;;;5052490;28;20461;-70
2021/12/11 10:53:59;;;;;;;38.57;20.10;;;7.10;99.20;;;;;;5051110;28;20525;-69
2021/12/11 10:56:28;;;;;;;36.00;19.40;;;7.20;99.30;;;;;;5069888;28;20966;-70
2021/12/11 10:59:07;;;;;;;32.60;19.73;;;7.20;99.40;;;;;;5056453;28;20418;-70
2021/12/11 11:01:46;;;;;;;40.93;21.80;;;7.20;99.60;;;;;;5051430;28;20966;-69
2021/12/11 11:04:18;;;;;;;39.23;20.53;;;7.30;99.90;;;;;;5054046;28;20426;-75
2021/12/11 11:06:45;;;;;;;36.70;19.90;;;7.30;99.90;;;;;;5060106;28;20420;-69
2021/12/11 11:09:12;;;;;;;36.73;20.00;;;7.30;99.90;;;;;;5067356;28;20520;-69
2021/12/11 11:11:40;;;;;;;36.20;21.07;;;7.40;99.90;;;;;;5060296;28;20504;-70
2021/12/11 11:14:09;;;;;;;39.47;20.03;;;7.40;99.90;;;;;;5070403;28;20765;-70
2021/12/11 11:16:38;;;;;;;35.00;19.90;;;7.50;99.90;;;;;;5064451;28;20439;-70
2021/12/11 11:19:04;;;;;;;36.70;20.43;;;7.50;99.90;;;;;;5069641;28;20848;-70
2021/12/11 11:21:35;;;;;;;37.17;19.60;;;7.50;99.90;;;;;;5071101;28;20509;-70
2021/12/11 11:24:04;;;;;;;36.00;22.43;;;7.50;99.90;;;;;;5074647;28;20431;-70
2021/12/11 11:26:34;;;;;;;34.70;19.60;;;7.50;99.90;;;;;;5073539;28;20469;-70
2021/12/11 11:29:02;;;;;;;33.80;18.90;;;7.60;99.90;;;;;;5064953;28;20427;-70
2021/12/11 11:31:34;;;;;;;32.10;19.90;;;7.70;99.90;;;;;;5068150;28;20824;-70
2021/12/11 11:34:02;;;;;;;38.60;20.70;;;7.70;99.90;;;;;;5063106;28;20427;-70
2021/12/11 11:36:28;;;;;;;32.23;19.97;;;7.60;99.90;;;;;;5070504;28;20441;-70
2021/12/11 11:39:02;;;;;;;32.20;18.40;;;7.60;99.90;;;;;;5068718;28;20429;-70
2021/12/11 11:41:37;;;;;;;32.27;17.87;;;7.60;99.90;;;;;;5053703;28;20816;-70
2021/12/11 11:44:04;;;;;;;31.30;19.13;;;7.60;99.90;;;;;;5055569;28;20465;-70
2021/12/11 11:46:31;;;;;;;1725.63;835.87;;;7.60;99.90;;;;;;5054329;28;20471;-70
2021/12/11 11:48:59;;;;;;;181.00;99.40;;;7.60;99.90;;;;;;5060120;28;20441;-69
2021/12/11 11:51:35;;;;;;;43.77;26.93;;;7.60;99.90;;;;;;5074289;28;20408;-70
2021/12/11 11:54:04;;;;;;;25.73;16.20;;;7.70;99.90;;;;;;5075286;28;20401;-69
2021/12/11 11:56:34;;;;;;;30.80;16.97;;;7.70;99.90;;;;;;5074461;28;20914;-70
2021/12/11 11:59:03;;;;;;;25.93;16.27;;;7.70;99.90;;;;;;5067305;28;20450;-70
2021/12/11 12:01:53;;;;;;;27.57;17.67;;;7.70;99.90;;;;;;5053180;28;20446;-70
2021/12/11 12:04:20;;;;;;;28.43;17.00;;;7.70;99.90;;;;;;5055959;28;20412;-77
2021/12/11 12:06:53;;;;;;;25.20;16.23;;;7.70;99.90;;;;;;5066740;28;20410;-70
2021/12/11 12:09:19;;;;;;;28.37;17.23;;;7.60;99.90;;;;;;5072214;28;20417;-76
2021/12/11 12:11:45;;;;;;;29.73;18.07;;;7.70;99.90;;;;;;5067982;28;20420;-70
2021/12/11 12:14:18;;;;;;;29.07;16.60;;;7.70;99.90;;;;;;5067267;28;20441;-70
2021/12/11 12:16:46;;;;;;;24.53;16.27;;;7.70;99.90;;;;;;5071531;28;20438;-71
2021/12/11 12:19:12;;;;;;;25.87;15.30;;;7.70;99.90;;;;;;5073509;28;20490;-70
2021/12/11 12:21:42;;;;;;;27.60;16.80;;;7.70;99.90;;;;;;5072693;28;20911;-70
2021/12/11 12:24:08;;;;;;;26.50;16.30;;;7.70;99.90;;;;;;5071756;28;20414;-70
2021/12/11 12:26:36;;;;;;;24.50;15.00;;;7.70;99.90;;;;;;5070638;28;20566;-70
2021/12/11 12:29:04;;;;;;;23.23;15.50;;;7.70;99.90;;;;;;5072240;28;20423;-70
2021/12/11 12:31:42;;;;;;;22.50;15.00;;;7.70;99.90;;;;;;5062136;28;20416;-70
2021/12/11 12:34:10;;;;;;;28.53;16.53;;;7.70;99.90;;;;;;5054008;28;20399;-69
2021/12/11 12:36:38;;;;;;;27.57;17.07;;;7.70;99.90;;;;;;5053907;28;20856;-69
2021/12/11 12:39:06;;;;;;;27.40;15.43;;;7.80;99.90;;;;;;5072699;28;20422;-69
2021/12/11 12:41:52;;;;;;;25.90;15.40;;;7.70;99.90;;;;;;5068147;28;20509;-70
2021/12/11 12:44:22;;;;;;;22.67;14.80;;;7.80;99.90;;;;;;5073690;28;20515;-69
2021/12/11 12:47:10;;;;;;;22.07;13.60;;;7.80;99.90;;;;;;5071212;28;20434;-69
2021/12/11 12:49:41;;;;;;;20.43;13.60;;;7.80;99.90;;;;;;5073468;28;20403;-69
2021/12/11 12:52:12;;;;;;;19.10;13.00;;;7.80;99.90;;;;;;5074218;28;20400;-69
2021/12/11 12:54:38;;;;;;;19.40;12.00;;;7.90;99.90;;;;;;5070382;28;20441;-70
2021/12/11 12:57:14;;;;;;;20.10;13.20;;;7.80;99.90;;;;;;5060571;28;20430;-69
2021/12/11 12:59:52;;;;;;;17.13;12.50;;;7.60;99.90;;;;;;5062074;28;20432;-69
2021/12/11 13:02:22;;;;;;;19.77;12.63;;;7.50;99.90;;;;;;5078137;28;20413;-69
2021/12/11 13:04:54;;;;;;;21.30;13.47;;;7.50;99.90;;;;;;5070837;28;20470;-70
2021/12/11 13:07:21;;;;;;;20.80;13.20;;;7.50;99.90;;;;;;5053917;28;20403;-68
2021/12/11 13:09:54;;;;;;;18.33;12.50;;;7.60;99.90;;;;;;5059731;28;20431;-69